sensor_id;sensor_type;location;lat;lon;timestamp;P1;durP1;ratioP1;P2;durP2;ratioP2
19617;SDS011;9956;51.006;13.670;2024-02-16T00:04:12;35.22;;;26.40;;
19617;SDS011;9956;51.006;13.670;2024-02-16T00:09:13;35.17;;;26.70;;
19617;SDS011;9956;51.006;13.670;2024-02-16T00:14:13;33.75;;;25.83;;
19617;SDS011;9956;51.006;13.670;2024-02-16T00:19:14;35.13;;;25.95;;
19617;SDS011;9956;51.006;13.670;2024-02-16T00:24:14;32.90;;;25.02;;
19617;SDS011;9956;51.006;13.670;2024-02-16T00:29:14;31.50;;;23.90;;
19617;SDS011;9956;51.006;13.670;2024-02-16T00:34:15;35.03;;;25.98;;
19617;SDS011;9956;51.006;13.670;2024-02-16T00:39:15;35.45;;;24.23;;
19617;SDS011;9956;51.006;13.670;2024-02-16T00:44:16;34.17;;;24.67;;
19617;SDS011;9956;51.006;13.670;2024-02-16T00:49:17;32.30;;;24.85;;
19617;SDS011;9956;51.006;13.670;2024-02-16T00:54:18;33.60;;;25.52;;
19617;SDS011;9956;51.006;13.670;2024-02-16T00:59:18;35.05;;;24.33;;
19617;SDS011;9956;51.006;13.670;2024-02-16T01:04:19;35.63;;;25.40;;
19617;SDS011;9956;51.006;13.670;2024-02-16T01:09:19;35.63;;;25.17;;
19617;SDS011;9956;51.006;13.670;2024-02-16T01:14:20;33.67;;;24.67;;
19617;SDS011;9956;51.006;13.670;2024-02-16T01:19:20;35.47;;;24.92;;
19617;SDS011;9956;51.006;13.670;2024-02-16T01:24:21;37.10;;;25.70;;
19617;SDS011;9956;51.006;13.670;2024-02-16T01:29:21;33.95;;;24.90;;
19617;SDS011;9956;51.006;13.670;2024-02-16T01:34:21;34.80;;;24.30;;
19617;SDS011;9956;51.006;13.670;2024-02-16T01:39:22;30.38;;;23.15;;
19617;SDS011;9956;51.006;13.670;2024-02-16T01:44:22;35.03;;;24.83;;
19617;SDS011;9956;51.006;13.670;2024-02-16T01:49:23;37.97;;;26.33;;
19617;SDS011;9956;51.006;13.670;2024-02-16T01:54:23;33.88;;;23.63;;
19617;SDS011;9956;51.006;13.670;2024-02-16T01:59:24;32.20;;;23.67;;
19617;SDS011;9956;51.006;13.670;2024-02-16T02:10:56;39.08;;;26.20;;
19617;SDS011;9956;51.006;13.670;2024-02-16T02:15:57;34.75;;;24.95;;
19617;SDS011;9956;51.006;13.670;2024-02-16T02:20:59;34.08;;;24.50;;
19617;SDS011;9956;51.006;13.670;2024-02-16T02:26:00;37.67;;;23.67;;
19617;SDS011;9956;51.006;13.670;2024-02-16T02:31:00;35.05;;;24.40;;
19617;SDS011;9956;51.006;13.670;2024-02-16T02:36:01;32.63;;;23.58;;
19617;SDS011;9956;51.006;13.670;2024-02-16T02:41:01;30.85;;;23.65;;
19617;SDS011;9956;51.006;13.670;2024-02-16T02:46:03;31.35;;;22.20;;
19617;SDS011;9956;51.006;13.670;2024-02-16T02:51:04;33.50;;;22.80;;
19617;SDS011;9956;51.006;13.670;2024-02-16T02:56:04;30.50;;;22.38;;
19617;SDS011;9956;51.006;13.670;2024-02-16T03:01:05;28.77;;;22.13;;
19617;SDS011;9956;51.006;13.670;2024-02-16T03:06:08;32.35;;;22.52;;
19617;SDS011;9956;51.006;13.670;2024-02-16T03:11:08;30.17;;;21.25;;
19617;SDS011;9956;51.006;13.670;2024-02-16T03:16:09;30.13;;;20.73;;
19617;SDS011;9956;51.006;13.670;2024-02-16T03:21:12;25.40;;;19.20;;
19617;SDS011;9956;51.006;13.670;2024-02-16T03:26:16;27.52;;;21.15;;
19617;SDS011;9956;51.006;13.670;2024-02-16T03:31:21;31.02;;;21.30;;
19617;SDS011;9956;51.006;13.670;2024-02-16T03:36:22;24.98;;;19.33;;
19617;SDS011;9956;51.006;13.670;2024-02-16T03:41:22;26.77;;;20.98;;
19617;SDS011;9956;51.006;13.670;2024-02-16T03:46:23;27.45;;;20.45;;
19617;SDS011;9956;51.006;13.670;2024-02-16T03:51:24;26.40;;;19.60;;
19617;SDS011;9956;51.006;13.670;2024-02-16T03:56:24;28.60;;;19.58;;
19617;SDS011;9956;51.006;13.670;2024-02-16T04:01:27;22.10;;;18.10;;
19617;SDS011;9956;51.006;13.670;2024-02-16T04:06:28;27.05;;;19.65;;
19617;SDS011;9956;51.006;13.670;2024-02-16T04:11:29;25.85;;;19.75;;
19617;SDS011;9956;51.006;13.670;2024-02-16T04:16:30;28.58;;;19.13;;
19617;SDS011;9956;51.006;13.670;2024-02-16T04:21:30;27.95;;;20.67;;
19617;SDS011;9956;51.006;13.670;2024-02-16T04:26:31;25.73;;;19.25;;
19617;SDS011;9956;51.006;13.670;2024-02-16T04:31:32;23.90;;;19.00;;
19617;SDS011;9956;51.006;13.670;2024-02-16T04:36:32;23.65;;;17.60;;
19617;SDS011;9956;51.006;13.670;2024-02-16T04:41:33;21.88;;;17.92;;
19617;SDS011;9956;51.006;13.670;2024-02-16T04:46:33;23.83;;;18.75;;
19617;SDS011;9956;51.006;13.670;2024-02-16T04:51:34;28.80;;;19.27;;
19617;SDS011;9956;51.006;13.670;2024-02-16T04:56:34;24.35;;;18.17;;
19617;SDS011;9956;51.006;13.670;2024-02-16T05:01:35;26.75;;;18.15;;
19617;SDS011;9956;51.006;13.670;2024-02-16T05:06:41;25.02;;;17.70;;
19617;SDS011;9956;51.006;13.670;2024-02-16T05:11:43;24.63;;;17.65;;
19617;SDS011;9956;51.006;13.670;2024-02-16T05:16:44;27.17;;;18.05;;
19617;SDS011;9956;51.006;13.670;2024-02-16T05:21:46;26.35;;;18.92;;
19617;SDS011;9956;51.006;13.670;2024-02-16T05:26:46;25.35;;;17.90;;
19617;SDS011;9956;51.006;13.670;2024-02-16T05:31:47;25.95;;;19.30;;
19617;SDS011;9956;51.006;13.670;2024-02-16T05:36:51;27.45;;;18.05;;
19617;SDS011;9956;51.006;13.670;2024-02-16T05:41:52;25.02;;;18.23;;
19617;SDS011;9956;51.006;13.670;2024-02-16T05:46:53;26.88;;;19.10;;
19617;SDS011;9956;51.006;13.670;2024-02-16T05:51:54;24.88;;;18.48;;
19617;SDS011;9956;51.006;13.670;2024-02-16T05:57:17;25.55;;;17.35;;
19617;SDS011;9956;51.006;13.670;2024-02-16T06:02:18;25.25;;;17.50;;
19617;SDS011;9956;51.006;13.670;2024-02-16T06:07:19;24.05;;;17.88;;
19617;SDS011;9956;51.006;13.670;2024-02-16T06:12:19;26.10;;;17.88;;
19617;SDS011;9956;51.006;13.670;2024-02-16T06:23:43;28.73;;;18.73;;
19617;SDS011;9956;51.006;13.670;2024-02-16T06:35:12;23.13;;;17.38;;
19617;SDS011;9956;51.006;13.670;2024-02-16T06:40:13;23.67;;;17.50;;
19617;SDS011;9956;51.006;13.670;2024-02-16T06:45:13;24.98;;;19.10;;
19617;SDS011;9956;51.006;13.670;2024-02-16T06:50:14;20.63;;;16.27;;
19617;SDS011;9956;51.006;13.670;2024-02-16T06:55:14;25.77;;;19.33;;
19617;SDS011;9956;51.006;13.670;2024-02-16T07:00:15;30.45;;;20.48;;
19617;SDS011;9956;51.006;13.670;2024-02-16T07:05:16;30.42;;;20.13;;
19617;SDS011;9956;51.006;13.670;2024-02-16T07:10:17;26.08;;;19.20;;
19617;SDS011;9956;51.006;13.670;2024-02-16T07:15:18;24.25;;;18.70;;
19617;SDS011;9956;51.006;13.670;2024-02-16T07:20:18;23.77;;;17.15;;
19617;SDS011;9956;51.006;13.670;2024-02-16T07:25:19;20.58;;;17.27;;
19617;SDS011;9956;51.006;13.670;2024-02-16T07:30:20;19.65;;;16.23;;
19617;SDS011;9956;51.006;13.670;2024-02-16T07:35:20;20.63;;;12.63;;
19617;SDS011;9956;51.006;13.670;2024-02-16T07:40:24;17.83;;;13.52;;
19617;SDS011;9956;51.006;13.670;2024-02-16T07:45:24;15.40;;;13.02;;
19617;SDS011;9956;51.006;13.670;2024-02-16T07:50:25;14.55;;;12.43;;
19617;SDS011;9956;51.006;13.670;2024-02-16T07:55:26;12.57;;;11.35;;
19617;SDS011;9956;51.006;13.670;2024-02-16T08:00:26;12.80;;;11.50;;
19617;SDS011;9956;51.006;13.670;2024-02-16T08:05:31;13.00;;;11.70;;
19617;SDS011;9956;51.006;13.670;2024-02-16T08:10:31;14.10;;;12.70;;
19617;SDS011;9956;51.006;13.670;2024-02-16T08:15:32;16.42;;;14.82;;
19617;SDS011;9956;51.006;13.670;2024-02-16T08:20:32;16.48;;;14.75;;
19617;SDS011;9956;51.006;13.670;2024-02-16T08:25:33;16.85;;;15.10;;
19617;SDS011;9956;51.006;13.670;2024-02-16T08:30:33;18.40;;;16.13;;
19617;SDS011;9956;51.006;13.670;2024-02-16T08:35:36;16.75;;;14.80;;
19617;SDS011;9956;51.006;13.670;2024-02-16T08:40:37;19.63;;;17.55;;
19617;SDS011;9956;51.006;13.670;2024-02-16T08:45:38;20.73;;;18.15;;
19617;SDS011;9956;51.006;13.670;2024-02-16T08:50:41;18.23;;;16.27;;
19617;SDS011;9956;51.006;13.670;2024-02-16T08:55:41;15.73;;;14.07;;
19617;SDS011;9956;51.006;13.670;2024-02-16T09:00:42;16.92;;;14.98;;
19617;SDS011;9956;51.006;13.670;2024-02-16T09:05:44;14.90;;;13.32;;
19617;SDS011;9956;51.006;13.670;2024-02-16T09:10:45;14.75;;;13.15;;
19617;SDS011;9956;51.006;13.670;2024-02-16T09:15:45;14.32;;;12.82;;
19617;SDS011;9956;51.006;13.670;2024-02-16T09:20:47;12.52;;;10.95;;
19617;SDS011;9956;51.006;13.670;2024-02-16T09:25:48;13.35;;;12.05;;
19617;SDS011;9956;51.006;13.670;2024-02-16T09:30:52;14.48;;;13.02;;
19617;SDS011;9956;51.006;13.670;2024-02-16T09:35:52;14.15;;;12.55;;
19617;SDS011;9956;51.006;13.670;2024-02-16T09:40:53;13.88;;;12.55;;
19617;SDS011;9956;51.006;13.670;2024-02-16T09:45:57;14.90;;;13.43;;
19617;SDS011;9956;51.006;13.670;2024-02-16T09:50:59;14.80;;;13.38;;
19617;SDS011;9956;51.006;13.670;2024-02-16T09:56:00;14.95;;;13.55;;
19617;SDS011;9956;51.006;13.670;2024-02-16T10:01:01;16.33;;;14.75;;
19617;SDS011;9956;51.006;13.670;2024-02-16T10:12:29;16.92;;;15.00;;
19617;SDS011;9956;51.006;13.670;2024-02-16T10:17:30;17.58;;;15.77;;
19617;SDS011;9956;51.006;13.670;2024-02-16T10:22:30;17.92;;;16.10;;
19617;SDS011;9956;51.006;13.670;2024-02-16T10:27:32;17.60;;;15.80;;
19617;SDS011;9956;51.006;13.670;2024-02-16T10:45:17;12.65;;;10.43;;
19617;SDS011;9956;51.006;13.670;2024-02-16T10:50:18;11.75;;;10.35;;
19617;SDS011;9956;51.006;13.670;2024-02-16T10:55:19;11.05;;;9.95;;
19617;SDS011;9956;51.006;13.670;2024-02-16T11:00:20;14.25;;;12.40;;
19617;SDS011;9956;51.006;13.670;2024-02-16T11:05:34;12.73;;;11.27;;
19617;SDS011;9956;51.006;13.670;2024-02-16T11:15:59;10.88;;;9.82;;
19617;SDS011;9956;51.006;13.670;2024-02-16T11:21:11;10.60;;;9.52;;
19617;SDS011;9956;51.006;13.670;2024-02-16T11:26:12;12.00;;;10.80;;
19617;SDS011;9956;51.006;13.670;2024-02-16T11:31:13;11.27;;;10.18;;
19617;SDS011;9956;51.006;13.670;2024-02-16T11:36:13;11.80;;;10.70;;
19617;SDS011;9956;51.006;13.670;2024-02-16T11:41:14;11.18;;;10.07;;
19617;SDS011;9956;51.006;13.670;2024-02-16T11:46:15;11.80;;;10.45;;
19617;SDS011;9956;51.006;13.670;2024-02-16T11:51:17;12.68;;;11.48;;
19617;SDS011;9956;51.006;13.670;2024-02-16T11:56:22;13.77;;;11.93;;
19617;SDS011;9956;51.006;13.670;2024-02-16T12:01:24;11.20;;;10.00;;
19617;SDS011;9956;51.006;13.670;2024-02-16T12:06:25;11.73;;;10.55;;
19617;SDS011;9956;51.006;13.670;2024-02-16T12:11:25;10.75;;;9.65;;
19617;SDS011;9956;51.006;13.670;2024-02-16T12:16:27;12.13;;;10.68;;
19617;SDS011;9956;51.006;13.670;2024-02-16T12:21:29;11.45;;;10.40;;
19617;SDS011;9956;51.006;13.670;2024-02-16T12:26:30;12.18;;;10.98;;
19617;SDS011;9956;51.006;13.670;2024-02-16T12:31:31;12.50;;;11.40;;
19617;SDS011;9956;51.006;13.670;2024-02-16T12:36:31;10.90;;;9.90;;
19617;SDS011;9956;51.006;13.670;2024-02-16T12:41:32;8.68;;;7.85;;
19617;SDS011;9956;51.006;13.670;2024-02-16T12:46:33;12.88;;;11.68;;
19617;SDS011;9956;51.006;13.670;2024-02-16T12:51:34;11.65;;;10.52;;
19617;SDS011;9956;51.006;13.670;2024-02-16T12:56:34;10.65;;;9.63;;
19617;SDS011;9956;51.006;13.670;2024-02-16T13:01:35;10.60;;;9.50;;
19617;SDS011;9956;51.006;13.670;2024-02-16T13:06:35;10.60;;;9.65;;
19617;SDS011;9956;51.006;13.670;2024-02-16T13:11:36;10.88;;;9.98;;
19617;SDS011;9956;51.006;13.670;2024-02-16T13:16:37;9.10;;;8.25;;
19617;SDS011;9956;51.006;13.670;2024-02-16T13:21:37;7.35;;;6.65;;
19617;SDS011;9956;51.006;13.670;2024-02-16T13:26:38;8.18;;;7.38;;
19617;SDS011;9956;51.006;13.670;2024-02-16T13:31:38;7.22;;;6.53;;
19617;SDS011;9956;51.006;13.670;2024-02-16T13:36:40;10.50;;;8.00;;
19617;SDS011;9956;51.006;13.670;2024-02-16T13:41:41;8.25;;;7.55;;
19617;SDS011;9956;51.006;13.670;2024-02-16T13:46:45;7.93;;;7.22;;
19617;SDS011;9956;51.006;13.670;2024-02-16T13:51:50;9.95;;;9.05;;
19617;SDS011;9956;51.006;13.670;2024-02-16T13:56:50;13.10;;;11.90;;
19617;SDS011;9956;51.006;13.670;2024-02-16T14:01:50;11.73;;;10.60;;
19617;SDS011;9956;51.006;13.670;2024-02-16T14:06:51;12.02;;;10.82;;
19617;SDS011;9956;51.006;13.670;2024-02-16T14:11:52;12.52;;;11.30;;
19617;SDS011;9956;51.006;13.670;2024-02-16T14:16:54;12.80;;;11.60;;
19617;SDS011;9956;51.006;13.670;2024-02-16T14:21:54;13.07;;;11.15;;
19617;SDS011;9956;51.006;13.670;2024-02-16T14:26:55;12.63;;;11.32;;
19617;SDS011;9956;51.006;13.670;2024-02-16T14:31:55;14.25;;;12.75;;
19617;SDS011;9956;51.006;13.670;2024-02-16T14:36:56;14.23;;;12.88;;
19617;SDS011;9956;51.006;13.670;2024-02-16T14:41:56;15.98;;;14.38;;
19617;SDS011;9956;51.006;13.670;2024-02-16T14:46:57;12.98;;;11.25;;
19617;SDS011;9956;51.006;13.670;2024-02-16T14:51:57;8.65;;;6.78;;
19617;SDS011;9956;51.006;13.670;2024-02-16T14:56:57;7.53;;;6.07;;
19617;SDS011;9956;51.006;13.670;2024-02-16T15:01:58;8.27;;;6.50;;
19617;SDS011;9956;51.006;13.670;2024-02-16T15:07:01;6.93;;;6.22;;
19617;SDS011;9956;51.006;13.670;2024-02-16T15:12:01;8.93;;;7.88;;
19617;SDS011;9956;51.006;13.670;2024-02-16T15:17:02;7.53;;;6.68;;
19617;SDS011;9956;51.006;13.670;2024-02-16T15:22:05;9.48;;;8.13;;
19617;SDS011;9956;51.006;13.670;2024-02-16T15:27:05;11.75;;;9.20;;
19617;SDS011;9956;51.006;13.670;2024-02-16T15:32:06;9.25;;;8.27;;
19617;SDS011;9956;51.006;13.670;2024-02-16T15:37:09;10.13;;;9.10;;
19617;SDS011;9956;51.006;13.670;2024-02-16T15:42:09;10.43;;;8.85;;
19617;SDS011;9956;51.006;13.670;2024-02-16T15:47:12;11.57;;;9.48;;
19617;SDS011;9956;51.006;13.670;2024-02-16T15:52:13;21.75;;;16.58;;
19617;SDS011;9956;51.006;13.670;2024-02-16T15:57:13;10.38;;;9.00;;
19617;SDS011;9956;51.006;13.670;2024-02-16T16:02:15;10.80;;;9.57;;
19617;SDS011;9956;51.006;13.670;2024-02-16T16:07:15;11.27;;;9.15;;
19617;SDS011;9956;51.006;13.670;2024-02-16T16:12:16;10.90;;;8.93;;
19617;SDS011;9956;51.006;13.670;2024-02-16T16:17:17;10.43;;;9.02;;
19617;SDS011;9956;51.006;13.670;2024-02-16T16:22:18;10.82;;;9.68;;
19617;SDS011;9956;51.006;13.670;2024-02-16T16:27:19;10.32;;;9.23;;
19617;SDS011;9956;51.006;13.670;2024-02-16T16:32:19;12.57;;;10.15;;
19617;SDS011;9956;51.006;13.670;2024-02-16T16:37:19;11.48;;;10.25;;
19617;SDS011;9956;51.006;13.670;2024-02-16T16:42:20;11.70;;;9.48;;
19617;SDS011;9956;51.006;13.670;2024-02-16T16:47:20;10.57;;;9.48;;
19617;SDS011;9956;51.006;13.670;2024-02-16T16:52:21;10.85;;;9.20;;
19617;SDS011;9956;51.006;13.670;2024-02-16T16:57:21;9.75;;;8.55;;
19617;SDS011;9956;51.006;13.670;2024-02-16T17:02:22;9.60;;;8.68;;
19617;SDS011;9956;51.006;13.670;2024-02-16T17:07:25;9.95;;;8.95;;
19617;SDS011;9956;51.006;13.670;2024-02-16T17:12:25;15.02;;;13.45;;
19617;SDS011;9956;51.006;13.670;2024-02-16T17:17:26;19.88;;;17.67;;
19617;SDS011;9956;51.006;13.670;2024-02-16T17:22:26;21.30;;;18.10;;
19617;SDS011;9956;51.006;13.670;2024-02-16T17:27:27;16.98;;;15.18;;
19617;SDS011;9956;51.006;13.670;2024-02-16T17:32:29;17.45;;;15.65;;
19617;SDS011;9956;51.006;13.670;2024-02-16T17:37:33;23.10;;;19.23;;
19617;SDS011;9956;51.006;13.670;2024-02-16T17:42:34;23.45;;;19.15;;
19617;SDS011;9956;51.006;13.670;2024-02-16T17:47:34;20.40;;;17.90;;
19617;SDS011;9956;51.006;13.670;2024-02-16T17:52:36;21.75;;;17.35;;
19617;SDS011;9956;51.006;13.670;2024-02-16T17:57:36;30.13;;;22.45;;
19617;SDS011;9956;51.006;13.670;2024-02-16T18:02:37;27.58;;;22.63;;
19617;SDS011;9956;51.006;13.670;2024-02-16T18:07:37;25.50;;;22.02;;
19617;SDS011;9956;51.006;13.670;2024-02-16T18:12:38;24.55;;;21.77;;
19617;SDS011;9956;51.006;13.670;2024-02-16T18:17:39;24.70;;;21.15;;
19617;SDS011;9956;51.006;13.670;2024-02-16T18:22:40;22.20;;;19.13;;
19617;SDS011;9956;51.006;13.670;2024-02-16T18:27:40;26.67;;;21.20;;
19617;SDS011;9956;51.006;13.670;2024-02-16T18:32:41;22.85;;;20.35;;
19617;SDS011;9956;51.006;13.670;2024-02-16T18:37:41;22.38;;;18.83;;
19617;SDS011;9956;51.006;13.670;2024-02-16T18:42:42;24.83;;;20.45;;
19617;SDS011;9956;51.006;13.670;2024-02-16T18:47:42;23.75;;;20.40;;
19617;SDS011;9956;51.006;13.670;2024-02-16T18:52:43;24.42;;;18.50;;
19617;SDS011;9956;51.006;13.670;2024-02-16T18:57:44;23.02;;;19.52;;
19617;SDS011;9956;51.006;13.670;2024-02-16T19:02:46;23.55;;;19.95;;
19617;SDS011;9956;51.006;13.670;2024-02-16T19:07:47;26.77;;;21.38;;
19617;SDS011;9956;51.006;13.670;2024-02-16T19:12:49;25.38;;;22.63;;
19617;SDS011;9956;51.006;13.670;2024-02-16T19:17:49;27.23;;;22.95;;
19617;SDS011;9956;51.006;13.670;2024-02-16T19:22:50;25.75;;;21.65;;
19617;SDS011;9956;51.006;13.670;2024-02-16T19:27:54;30.38;;;23.45;;
19617;SDS011;9956;51.006;13.670;2024-02-16T19:32:55;29.73;;;24.60;;
19617;SDS011;9956;51.006;13.670;2024-02-16T19:37:58;31.13;;;24.35;;
19617;SDS011;9956;51.006;13.670;2024-02-16T19:42:59;32.28;;;25.67;;
19617;SDS011;9956;51.006;13.670;2024-02-16T19:47:59;30.52;;;24.95;;
19617;SDS011;9956;51.006;13.670;2024-02-16T19:53:00;31.00;;;25.25;;
19617;SDS011;9956;51.006;13.670;2024-02-16T19:58:01;40.35;;;32.38;;
19617;SDS011;9956;51.006;13.670;2024-02-16T20:03:01;28.73;;;23.27;;
19617;SDS011;9956;51.006;13.670;2024-02-16T20:08:02;24.65;;;20.27;;
19617;SDS011;9956;51.006;13.670;2024-02-16T20:13:04;25.90;;;22.67;;
19617;SDS011;9956;51.006;13.670;2024-02-16T20:18:05;30.10;;;23.88;;
19617;SDS011;9956;51.006;13.670;2024-02-16T20:23:05;25.30;;;22.00;;
19617;SDS011;9956;51.006;13.670;2024-02-16T20:28:06;27.17;;;23.27;;
19617;SDS011;9956;51.006;13.670;2024-02-16T20:33:06;27.88;;;22.73;;
19617;SDS011;9956;51.006;13.670;2024-02-16T20:38:09;28.83;;;24.02;;
19617;SDS011;9956;51.006;13.670;2024-02-16T20:43:09;28.63;;;24.15;;
19617;SDS011;9956;51.006;13.670;2024-02-16T20:48:09;22.63;;;18.05;;
19617;SDS011;9956;51.006;13.670;2024-02-16T20:53:10;31.13;;;26.05;;
19617;SDS011;9956;51.006;13.670;2024-02-16T20:58:10;26.98;;;23.08;;
19617;SDS011;9956;51.006;13.670;2024-02-16T21:03:11;18.08;;;15.73;;
19617;SDS011;9956;51.006;13.670;2024-02-16T21:08:11;18.90;;;15.18;;
19617;SDS011;9956;51.006;13.670;2024-02-16T21:13:12;16.50;;;13.57;;
19617;SDS011;9956;51.006;13.670;2024-02-16T21:18:15;17.38;;;15.27;;
19617;SDS011;9956;51.006;13.670;2024-02-16T21:23:16;20.10;;;14.23;;
19617;SDS011;9956;51.006;13.670;2024-02-16T21:28:17;10.90;;;9.25;;
19617;SDS011;9956;51.006;13.670;2024-02-16T21:33:17;8.88;;;7.97;;
19617;SDS011;9956;51.006;13.670;2024-02-16T21:38:18;8.32;;;6.55;;
19617;SDS011;9956;51.006;13.670;2024-02-16T21:43:19;7.43;;;6.32;;
19617;SDS011;9956;51.006;13.670;2024-02-16T21:48:19;11.75;;;7.53;;
19617;SDS011;9956;51.006;13.670;2024-02-16T21:53:20;10.77;;;8.57;;
19617;SDS011;9956;51.006;13.670;2024-02-16T21:58:20;11.52;;;9.10;;
19617;SDS011;9956;51.006;13.670;2024-02-16T22:03:21;13.05;;;9.32;;
19617;SDS011;9956;51.006;13.670;2024-02-16T22:08:22;9.23;;;8.10;;
19617;SDS011;9956;51.006;13.670;2024-02-16T22:13:22;11.50;;;9.82;;
19617;SDS011;9956;51.006;13.670;2024-02-16T22:18:23;11.02;;;8.00;;
19617;SDS011;9956;51.006;13.670;2024-02-16T22:23:23;10.23;;;7.80;;
19617;SDS011;9956;51.006;13.670;2024-02-16T22:28:24;9.23;;;6.93;;
19617;SDS011;9956;51.006;13.670;2024-02-16T22:33:24;7.88;;;6.30;;
19617;SDS011;9956;51.006;13.670;2024-02-16T22:38:28;10.43;;;5.25;;
19617;SDS011;9956;51.006;13.670;2024-02-16T22:43:28;8.60;;;4.95;;
19617;SDS011;9956;51.006;13.670;2024-02-16T22:48:29;4.55;;;3.90;;
19617;SDS011;9956;51.006;13.670;2024-02-16T22:53:29;5.82;;;4.32;;
19617;SDS011;9956;51.006;13.670;2024-02-16T22:58:30;5.20;;;3.80;;
19617;SDS011;9956;51.006;13.670;2024-02-16T23:03:30;6.22;;;4.30;;
19617;SDS011;9956;51.006;13.670;2024-02-16T23:08:31;4.63;;;3.78;;
19617;SDS011;9956;51.006;13.670;2024-02-16T23:13:33;7.65;;;4.47;;
19617;SDS011;9956;51.006;13.670;2024-02-16T23:18:33;7.13;;;4.00;;
19617;SDS011;9956;51.006;13.670;2024-02-16T23:23:34;6.38;;;4.80;;
19617;SDS011;9956;51.006;13.670;2024-02-16T23:28:34;6.65;;;4.43;;
19617;SDS011;9956;51.006;13.670;2024-02-16T23:33:35;4.80;;;3.95;;
19617;SDS011;9956;51.006;13.670;2024-02-16T23:38:35;5.93;;;4.57;;
19617;SDS011;9956;51.006;13.670;2024-02-16T23:43:35;7.18;;;4.78;;
19617;SDS011;9956;51.006;13.670;2024-02-16T23:48:37;9.10;;;5.05;;
19617;SDS011;9956;51.006;13.670;2024-02-16T23:53:38;6.40;;;4.60;;
19617;SDS011;9956;51.006;13.670;2024-02-16T23:58:38;7.63;;;5.70;;
